Carlos Beguerie, Argentina
Current Conditions -  °F | °C
As of 10:00 PM on Friday 24 Oct 2014 (Local Time) from SAEZ Reporting Station
Clear Clear  
Wind Chill: 73°   Ceiling: Unl
Heat Index: 73°   Visibility: 6mi
Dew Point: 63°   Wind: 7mph
Humidity: 69%   Direction: 80°E
Pressure: 29.97"   Gusts: NA
Location:  35.49°S, 59.1°W
Report Text: SAEZ 250100Z 08006KT CAVOK 23/17 Q1015
Loading
Personal Weather Stations






























Interactive Weather Map
Tropical Storm Tracking
New forecast layout! Learn more

10-Day Weather Forecast

Advertisements
Track Severe Weather on mobile